WetterOnline ( https://www.wetteronline.de )

Wetter aktuell Marktgraitz

Aktuelles Wetter: Coburg (323m)

6-stündlich | Neueste Meldungen
Ortszeit Temperatur Wetter
Mo, 18.10. 8:00 1.8° C wolkenlos
Mo, 18.10. 2:00 5.8° C wolkig
So, 17.10. 20:00 8.1° C bedeckt
So, 17.10. 14:00 8.8° C bedeckt
So, 17.10. 8:00 4.0° C bedeckt
So, 17.10. 2:00 1.2° C wolkig
Sa, 16.10. 20:00 5.5° C wolkenlos
Sa, 16.10. 14:00 9.9° C wolkenlos
Ortszeit Temperatur Wetter
Mo, 18.10. 10:30 5.3° C bedeckt
Mo, 18.10. 10:20 5.3° C bedeckt
Mo, 18.10. 10:10 5.0° C bedeckt
Mo, 18.10. 10:00 4.7° C bewölkt
Mo, 18.10. 9:50 4.7° C bewölkt
Mo, 18.10. 9:40 4.5° C wolkig
Mo, 18.10. 9:30 4.1° C wolkenlos
Mo, 18.10. 9:00 2.5° C wolkenlos
Mo, 18.10. 8:30 1.8° C wolkenlos
Mo, 18.10. 8:00 1.8° C wolkenlos
Mo, 18.10. 7:30 1.9° C wolkenlos
Ortszeit Relative Feuchte Sichtweite
Mo, 18.10. 8:00 99% 1.3 km
Mo, 18.10. 2:00 92% 40 km
So, 17.10. 20:00 87% 50 km
So, 17.10. 14:00 73% 55 km
So, 17.10. 8:00 96% 35 km
So, 17.10. 2:00 98% 13 km
Sa, 16.10. 20:00 88% 45 km
Sa, 16.10. 14:00 71% 40 km
Ortszeit Relative Feuchte Sichtweite
Mo, 18.10. 10:30 92% 25 km
Mo, 18.10. 10:20 92% -
Mo, 18.10. 10:10 91% -
Mo, 18.10. 10:00 89% 30 km
Mo, 18.10. 9:50 89% -
Mo, 18.10. 9:40 87% -
Mo, 18.10. 9:30 90% 30 km
Mo, 18.10. 9:00 92% 23 km
Mo, 18.10. 8:30 95% 26 km
Mo, 18.10. 8:00 99% 1.3 km
Mo, 18.10. 7:30 96% 29 km
Ortszeit Niederschlagsmenge Niederschlagsart
Mo, 18.10. 8:00 0.0 l/m2 in 12 Std. -
Mo, 18.10. 2:00 0.0 l/m2 in 6 Std. -
So, 17.10. 20:00 0.0 l/m2 in 12 Std. -
So, 17.10. 14:00 0.0 l/m2 in 6 Std. -
So, 17.10. 8:00 0.0 l/m2 in 12 Std. -
So, 17.10. 2:00 0.0 l/m2 in 6 Std. -
Sa, 16.10. 20:00 0.0 l/m2 in 12 Std. -
Sa, 16.10. 14:00 0.0 l/m2 in 6 Std. -
Ortszeit Niederschlagsmenge Niederschlagsart
Mo, 18.10. 10:30 0.0 l/m2 in 1 Std. -
Mo, 18.10. 10:20 keine Meldung -
Mo, 18.10. 10:10 keine Meldung -
Mo, 18.10. 10:00 0.0 l/m2 in 1 Std. -
Mo, 18.10. 9:50 keine Meldung -
Mo, 18.10. 9:40 keine Meldung -
Mo, 18.10. 9:30 0.0 l/m2 in 1 Std. -
Mo, 18.10. 9:00 0.0 l/m2 in 1 Std. -
Mo, 18.10. 8:30 0.0 l/m2 in 1 Std. -
Mo, 18.10. 8:00 0.0 l/m2 in 1 Std. -
Mo, 18.10. 7:30 0.0 l/m2 in 1 Std. -
Ortszeit Stärke Spitze Richtung
km/h Bft. km/h Grad Sektor
Mo, 18.10. 8:00 4 1 11 280° W
Mo, 18.10. 2:00 11 2 18 40° NO
So, 17.10. 20:00 9 2 15 20° N
So, 17.10. 14:00 7 2 14 120° SO
So, 17.10. 8:00 6 1 19 70° O
So, 17.10. 2:00 0 0 18 - -
Sa, 16.10. 20:00 14 3 14 20° N
Sa, 16.10. 14:00 6 1 11 260° W
Ortszeit Stärke Spitze Richtung
km/h Bft. km/h Grad Sektor
Mo, 18.10. 10:30 6 1 7 70° O
Mo, 18.10. 10:20 6 1 - 70° O
Mo, 18.10. 10:10 4 1 - 100° O
Mo, 18.10. 10:00 4 1 7 140° SO
Mo, 18.10. 9:50 4 1 - 140° SO
Mo, 18.10. 9:40 4 1 - 110° O
Mo, 18.10. 9:30 4 1 7 70° O
Mo, 18.10. 9:00 4 1 7 20° N
Mo, 18.10. 8:30 2 1 6 50° NO
Mo, 18.10. 8:00 4 1 11 280° W
Mo, 18.10. 7:30 9 2 11 40° NO
Ortszeit Untergrenze Bedeckung Gattung
total tief tief mittel hoch
Mo, 18.10. 8:00 - 0/8 0/8 - - -
Mo, 18.10. 2:00 1500 m 8/8 3/8 - - -
So, 17.10. 20:00 1500 m 8/8 8/8 - - -
So, 17.10. 14:00 1470 m 8/8 8/8 - - -
So, 17.10. 8:00 1290 m 8/8 8/8 - - -
So, 17.10. 2:00 7500 m 8/8 0/8 - - -
Sa, 16.10. 20:00 - 0/8 0/8 - - -
Sa, 16.10. 14:00 - 0/8 0/8 - - -
Ortszeit Bedeckungsgrad in Achtel und Wolkenuntergrenze
Mo, 18.10. 10:30 7(180m) 8(270m)
Mo, 18.10. 10:20 7(180m) 8(270m)
Mo, 18.10. 10:10 8(210m)
Mo, 18.10. 10:00 7(300m)
Mo, 18.10. 9:50 7(300m)
Mo, 18.10. 9:40 5(300m)
Mo, 18.10. 9:30 1(300m)
Mo, 18.10. 9:00 keine Wolken
Mo, 18.10. 8:30 keine Wolken
Mo, 18.10. 8:00 keine Wolken
Mo, 18.10. 7:30 keine Wolken
Ortszeit Luftdruck NN (hPa) Tendenz (hPa in 3 Std.)
Mo, 18.10. 8:00 1027 + 1,5
Mo, 18.10. 2:00 1024 + 0,4
So, 17.10. 20:00 1022 + 0,7
So, 17.10. 14:00 1022 - 0,2
So, 17.10. 8:00 1022 + 0,1
So, 17.10. 2:00 1023 - 0,1
Sa, 16.10. 20:00 1023 + 0,4
Sa, 16.10. 14:00 1023 - 0,8
Ortszeit Luftdruck NN (hPa) Tendenz (hPa in 3 Std.)
Mo, 18.10. 10:30 1027 + 1,5
Mo, 18.10. 10:20 1027 keine Meldung
Mo, 18.10. 10:10 1027 keine Meldung
Mo, 18.10. 10:00 1027 + 1,7
Mo, 18.10. 9:50 1027 keine Meldung
Mo, 18.10. 9:40 1027 keine Meldung
Mo, 18.10. 9:30 1027 + 1,6
Mo, 18.10. 9:00 1027 + 1,5
Mo, 18.10. 8:30 1027 + 1,5
Mo, 18.10. 8:00 1027 + 1,5
Mo, 18.10. 7:30 1026 + 1,0
Ortszeit Schneehöhe (cm)
Mo, 18.10. 8:00 0
Mo, 18.10. 2:00 0
So, 17.10. 20:00 0
So, 17.10. 14:00 0
So, 17.10. 8:00 0
So, 17.10. 2:00 0
Sa, 16.10. 20:00 0
Sa, 16.10. 14:00 0
Ortszeit Schneehöhe (cm)
Mo, 18.10. 10:30 0
Mo, 18.10. 10:20 0
Mo, 18.10. 10:10 0
Mo, 18.10. 10:00 0
Mo, 18.10. 9:50 0
Mo, 18.10. 9:40 0
Mo, 18.10. 9:30 0
Mo, 18.10. 9:00 0
Mo, 18.10. 8:30 0
Mo, 18.10. 8:00 0
Mo, 18.10. 7:30 0
Link zu dieser Seite / Seite empfehlen

Das Wetter in ...